Time;durP1;ratioP1;P1;durP2;ratioP2;P2;SDS_P1;SDS_P2;PMS_P1;PMS_P2;Temp;Humidity;BMP_temperature;BMP_pressure;BME280_temperature;BME280_humidity;BME280_pressure;Samples;Min_cycle;Max_cycle;Signal;HPM_P1;HPM_P2
2021/09/21 00:02:17;;;;;;;6.40;4.80;;;;;;;;;;4331294;33;20150;-81
2021/09/21 00:04:50;;;;;;;6.82;5.03;;;;;;;;;;4331522;33;20580;-81
2021/09/21 00:07:15;;;;;;;7.10;5.70;;;;;;;;;;4331428;33;20536;-81
2021/09/21 00:09:43;;;;;;;9.60;5.65;;;;;;;;;;4330918;33;20124;-81
2021/09/21 00:12:09;;;;;;;6.90;5.18;;;;;;;;;;4317159;33;20234;-81
2021/09/21 00:14:34;;;;;;;7.50;5.28;;;;;;;;;;4330786;33;20158;-81
2021/09/21 00:17:02;;;;;;;7.07;5.32;;;;;;;;;;4330668;33;20163;-81
2021/09/21 00:19:31;;;;;;;6.65;4.93;;;;;;;;;;4330833;33;20140;-82
2021/09/21 00:21:57;;;;;;;6.85;5.68;;;;;;;;;;4318066;33;20171;-81
2021/09/21 00:24:22;;;;;;;8.02;5.50;;;;;;;;;;4330556;33;20595;-82
2021/09/21 00:26:47;;;;;;;7.70;5.32;;;;;;;;;;4317692;33;20163;-82
2021/09/21 00:29:13;;;;;;;7.95;5.50;;;;;;;;;;4331114;33;20182;-81
2021/09/21 00:31:42;;;;;;;9.00;5.68;;;;;;;;;;4331174;33;20144;-81
2021/09/21 00:34:12;;;;;;;8.48;5.70;;;;;;;;;;4317508;33;20222;-81
2021/09/21 00:36:38;;;;;;;9.57;6.00;;;;;;;;;;4317730;33;20155;-81
2021/09/21 00:39:05;;;;;;;7.68;5.50;;;;;;;;;;4330625;33;20155;-81
2021/09/21 00:41:31;;;;;;;8.45;5.90;;;;;;;;;;4330934;33;20628;-81
2021/09/21 00:43:56;;;;;;;8.10;5.47;;;;;;;;;;4331190;33;20128;-81
2021/09/21 00:46:21;;;;;;;7.37;5.97;;;;;;;;;;4331409;33;20132;-82
2021/09/21 00:48:47;;;;;;;8.75;5.40;;;;;;;;;;4330977;33;20178;-82
2021/09/21 00:51:12;;;;;;;10.15;5.93;;;;;;;;;;4317654;33;20159;-83
2021/09/21 00:53:38;;;;;;;8.43;5.65;;;;;;;;;;4330785;33;20128;-82
2021/09/21 00:56:03;;;;;;;7.53;5.37;;;;;;;;;;4330234;33;20152;-82
2021/09/21 00:58:29;;;;;;;7.40;5.65;;;;;;;;;;4317841;33;20199;-82
2021/09/21 01:00:54;;;;;;;6.97;5.40;;;;;;;;;;4316979;33;20152;-82
2021/09/21 01:03:22;;;;;;;8.35;5.28;;;;;;;;;;4317453;33;20186;-82
2021/09/21 01:05:47;;;;;;;9.10;5.35;;;;;;;;;;4330368;33;20176;-83
2021/09/21 01:08:12;;;;;;;6.87;5.30;;;;;;;;;;4331015;33;20186;-82
2021/09/21 01:10:37;;;;;;;7.28;5.70;;;;;;;;;;4330736;33;20170;-81
2021/09/21 01:13:03;;;;;;;8.60;5.90;;;;;;;;;;4331111;33;20158;-82
2021/09/21 01:15:28;;;;;;;8.05;5.75;;;;;;;;;;4330628;33;20230;-82
2021/09/21 01:17:56;;;;;;;7.32;5.45;;;;;;;;;;4330605;33;20132;-82
2021/09/21 01:20:22;;;;;;;8.38;5.05;;;;;;;;;;4318339;33;20590;-81
2021/09/21 01:22:47;;;;;;;9.65;6.03;;;;;;;;;;4333940;33;20166;-81
2021/09/21 01:25:16;;;;;;;8.57;5.85;;;;;;;;;;4333807;33;20657;-81
2021/09/21 01:27:41;;;;;;;8.20;5.37;;;;;;;;;;4333891;33;20148;-81
2021/09/21 01:30:07;;;;;;;8.60;5.35;;;;;;;;;;4333720;33;20456;-82
2021/09/21 01:32:32;;;;;;;6.70;5.35;;;;;;;;;;4333438;33;20151;-82
2021/09/21 01:35:00;;;;;;;8.48;6.00;;;;;;;;;;4333644;33;20455;-81
2021/09/21 01:37:27;;;;;;;7.60;6.00;;;;;;;;;;4333065;33;20159;-81
2021/09/21 01:39:52;;;;;;;9.00;6.18;;;;;;;;;;4333459;33;20178;-81
2021/09/21 01:42:18;;;;;;;10.32;6.50;;;;;;;;;;4333251;33;20625;-82
2021/09/21 01:44:43;;;;;;;8.93;6.37;;;;;;;;;;4333488;33;20488;-81
2021/09/21 01:47:08;;;;;;;9.35;6.00;;;;;;;;;;4333285;33;20560;-81
2021/09/21 01:49:41;;;;;;;8.93;5.68;;;;;;;;;;4335047;33;20132;-81
2021/09/21 01:52:17;;;;;;;10.13;6.28;;;;;;;;;;4335203;33;20214;-81
2021/09/21 01:55:00;;;;;;;9.38;6.22;;;;;;;;;;4334747;33;20162;-81
2021/09/21 02:00:09;;;;;;;8.45;5.72;;;;;;;;;;4334758;33;20179;-81
2021/09/21 02:02:35;;;;;;;8.82;5.57;;;;;;;;;;4332856;33;20510;-81
2021/09/21 02:05:00;;;;;;;8.65;5.90;;;;;;;;;;4333244;33;20160;-81
2021/09/21 02:07:25;;;;;;;7.05;5.68;;;;;;;;;;4320631;33;20159;-81
2021/09/21 02:09:51;;;;;;;11.25;6.18;;;;;;;;;;4333400;33;20568;-81
2021/09/21 02:12:25;;;;;;;7.95;5.90;;;;;;;;;;4333023;33;20159;-81
2021/09/21 02:14:52;;;;;;;9.80;5.97;;;;;;;;;;4333532;33;20168;-81
2021/09/21 02:17:17;;;;;;;7.72;5.90;;;;;;;;;;4332506;33;20214;-81
2021/09/21 02:19:46;;;;;;;7.75;5.60;;;;;;;;;;4332530;33;20538;-81
2021/09/21 02:22:14;;;;;;;8.90;6.22;;;;;;;;;;4319221;33;20156;-81
2021/09/21 02:24:39;;;;;;;8.10;5.22;;;;;;;;;;4332656;33;20163;-81
2021/09/21 02:27:05;;;;;;;9.40;5.75;;;;;;;;;;4332854;33;20457;-81
2021/09/21 02:29:30;;;;;;;10.25;6.00;;;;;;;;;;4332621;33;20167;-81
2021/09/21 02:31:55;;;;;;;8.07;5.60;;;;;;;;;;4318720;33;20160;-81
2021/09/21 02:34:20;;;;;;;9.48;4.97;;;;;;;;;;4319015;33;20155;-81
2021/09/21 02:36:46;;;;;;;8.10;5.18;;;;;;;;;;4332746;33;20151;-81
2021/09/21 02:39:12;;;;;;;9.40;5.40;;;;;;;;;;4318786;33;20218;-81
2021/09/21 02:41:41;;;;;;;7.68;5.22;;;;;;;;;;4332423;33;20209;-81
2021/09/21 02:44:24;;;;;;;7.93;5.93;;;;;;;;;;4332750;33;20144;-81
2021/09/21 02:46:51;;;;;;;9.82;5.40;;;;;;;;;;4332597;33;20202;-81
2021/09/21 02:49:16;;;;;;;7.68;5.50;;;;;;;;;;4332695;33;20132;-82
2021/09/21 02:51:41;;;;;;;6.78;4.95;;;;;;;;;;4319070;33;20227;-81
2021/09/21 02:54:07;;;;;;;6.55;4.82;;;;;;;;;;4319638;33;20178;-81
2021/09/21 02:56:32;;;;;;;6.70;4.80;;;;;;;;;;4332694;33;20159;-81
2021/09/21 02:58:57;;;;;;;8.23;5.05;;;;;;;;;;4319239;33;20219;-81
2021/09/21 03:01:22;;;;;;;8.13;5.10;;;;;;;;;;4332261;33;20457;-81
2021/09/21 03:03:53;;;;;;;7.22;5.00;;;;;;;;;;4332444;33;20151;-81
2021/09/21 03:06:29;;;;;;;6.97;4.85;;;;;;;;;;4332350;33;20124;-81
2021/09/21 03:09:02;;;;;;;7.07;5.18;;;;;;;;;;4332137;33;20162;-81
2021/09/21 03:11:30;;;;;;;6.28;5.07;;;;;;;;;;4332711;33;20170;-81
2021/09/21 03:19:04;;;;;;;8.13;5.25;;;;;;;;;;4332175;33;20158;-81
2021/09/21 03:21:29;;;;;;;8.95;5.47;;;;;;;;;;4332059;33;20160;-81
2021/09/21 03:23:55;;;;;;;7.60;5.35;;;;;;;;;;4318372;33;20183;-81
2021/09/21 03:26:21;;;;;;;8.25;5.65;;;;;;;;;;4331831;33;20565;-81
2021/09/21 03:28:46;;;;;;;8.20;6.47;;;;;;;;;;4331944;33;20473;-82
2021/09/21 03:31:11;;;;;;;9.70;6.05;;;;;;;;;;4318972;33;20233;-83
2021/09/21 03:33:37;;;;;;;8.65;5.97;;;;;;;;;;4318157;33;20160;-82
2021/09/21 03:36:02;;;;;;;10.48;6.43;;;;;;;;;;4331760;33;20151;-82
2021/09/21 03:38:27;;;;;;;10.05;6.32;;;;;;;;;;4331699;33;20425;-81
2021/09/21 03:40:52;;;;;;;10.52;6.15;;;;;;;;;;4331726;33;20135;-81
2021/09/21 03:43:20;;;;;;;8.10;6.05;;;;;;;;;;4331347;33;20147;-82
2021/09/21 03:45:48;;;;;;;9.32;6.12;;;;;;;;;;4318061;33;20182;-82
2021/09/21 03:48:13;;;;;;;8.98;5.65;;;;;;;;;;4318014;33;20268;-82
2021/09/21 03:50:38;;;;;;;10.30;5.95;;;;;;;;;;4331242;33;20132;-81
2021/09/21 03:53:04;;;;;;;11.43;7.00;;;;;;;;;;4331211;33;20132;-82
2021/09/21 03:55:29;;;;;;;8.27;6.00;;;;;;;;;;4331252;33;20547;-81
2021/09/21 03:57:54;;;;;;;9.15;5.93;;;;;;;;;;4331337;33;20578;-83
2021/09/21 04:00:20;;;;;;;9.38;6.62;;;;;;;;;;4331106;33;20513;-81
2021/09/21 04:02:45;;;;;;;11.30;7.37;;;;;;;;;;4331749;33;20521;-82
2021/09/21 04:05:11;;;;;;;10.63;7.22;;;;;;;;;;4331122;33;20183;-81
2021/09/21 04:07:36;;;;;;;11.30;8.02;;;;;;;;;;4331564;33;20152;-81
2021/09/21 04:10:02;;;;;;;10.90;7.93;;;;;;;;;;4331591;33;20167;-81
2021/09/21 04:12:27;;;;;;;10.60;7.80;;;;;;;;;;4331257;33;20547;-82
2021/09/21 04:14:53;;;;;;;13.07;8.35;;;;;;;;;;4330957;33;20135;-80
2021/09/21 04:17:18;;;;;;;10.90;7.90;;;;;;;;;;4330774;33;20164;-81
2021/09/21 04:19:43;;;;;;;10.48;7.80;;;;;;;;;;4331038;33;20143;-81
2021/09/21 04:22:09;;;;;;;12.68;8.18;;;;;;;;;;4331133;33;20609;-81
2021/09/21 04:24:35;;;;;;;11.85;7.72;;;;;;;;;;4330847;33;20465;-81
2021/09/21 04:27:00;;;;;;;13.23;8.90;;;;;;;;;;4331392;33;20530;-81
2021/09/21 04:29:28;;;;;;;11.43;8.38;;;;;;;;;;4317902;33;20213;-81
2021/09/21 04:31:56;;;;;;;12.10;8.90;;;;;;;;;;4317441;33;20160;-81
2021/09/21 04:34:21;;;;;;;14.10;9.38;;;;;;;;;;4330717;33;20158;-81
2021/09/21 04:36:52;;;;;;;13.23;8.57;;;;;;;;;;4330740;33;20128;-81
2021/09/21 04:39:25;;;;;;;12.77;8.93;;;;;;;;;;4331412;33;20234;-82
2021/09/21 04:41:51;;;;;;;16.50;8.95;;;;;;;;;;4331084;33;20573;-80
2021/09/21 04:44:17;;;;;;;13.93;8.80;;;;;;;;;;4330853;33;20151;-81
2021/09/21 04:46:42;;;;;;;13.60;7.95;;;;;;;;;;4317128;33;20214;-81
2021/09/21 04:49:13;;;;;;;12.90;8.40;;;;;;;;;;4330888;33;20254;-81
2021/09/21 04:51:38;;;;;;;12.40;8.90;;;;;;;;;;4330602;33;20154;-81
2021/09/21 04:54:06;;;;;;;13.70;9.15;;;;;;;;;;4330493;33;20136;-82
2021/09/21 04:56:32;;;;;;;15.95;9.55;;;;;;;;;;4316643;33;20246;-77
2021/09/21 04:58:59;;;;;;;12.02;8.50;;;;;;;;;;4330521;33;20144;-82
2021/09/21 05:01:25;;;;;;;14.80;9.63;;;;;;;;;;4330365;33;20254;-83
2021/09/21 05:03:50;;;;;;;14.18;9.95;;;;;;;;;;4331808;33;20156;-83
2021/09/21 05:06:16;;;;;;;14.02;8.60;;;;;;;;;;4330997;33;20131;-81
2021/09/21 05:08:43;;;;;;;12.90;8.60;;;;;;;;;;4330345;33;20162;-80
2021/09/21 05:11:08;;;;;;;16.65;9.48;;;;;;;;;;4330310;33;20530;-79
2021/09/21 05:13:39;;;;;;;14.02;8.88;;;;;;;;;;4330427;33;20198;-81
2021/09/21 05:16:05;;;;;;;13.55;9.57;;;;;;;;;;4330336;33;20234;-81
2021/09/21 05:18:30;;;;;;;13.82;9.13;;;;;;;;;;4330318;33;20577;-80
2021/09/21 05:20:55;;;;;;;13.00;9.52;;;;;;;;;;4330217;33;20163;-80
2021/09/21 05:23:20;;;;;;;16.85;9.65;;;;;;;;;;4330222;33;20132;-80
2021/09/21 05:25:46;;;;;;;14.52;8.93;;;;;;;;;;4330351;33;20501;-79
2021/09/21 05:28:11;;;;;;;16.02;9.82;;;;;;;;;;4330261;33;20156;-80
2021/09/21 05:30:36;;;;;;;18.15;9.55;;;;;;;;;;4330591;33;20144;-80
2021/09/21 05:33:01;;;;;;;18.17;9.80;;;;;;;;;;4330059;33;20129;-80
2021/09/21 05:35:27;;;;;;;15.38;9.50;;;;;;;;;;4330205;33;20132;-80
2021/09/21 05:37:52;;;;;;;19.33;9.85;;;;;;;;;;4330267;33;20128;-81
2021/09/21 05:40:17;;;;;;;15.68;9.60;;;;;;;;;;4330134;33;20158;-81
2021/09/21 05:42:43;;;;;;;14.50;9.38;;;;;;;;;;4330211;33;20159;-81
2021/09/21 05:45:09;;;;;;;17.20;9.63;;;;;;;;;;4331094;33;20132;-81
2021/09/21 05:47:34;;;;;;;15.15;10.02;;;;;;;;;;4330598;33;20550;-81
2021/09/21 05:50:00;;;;;;;13.95;10.32;;;;;;;;;;4330207;33;20163;-80
2021/09/21 05:52:25;;;;;;;14.68;9.40;;;;;;;;;;4329722;33;20136;-79
2021/09/21 05:54:50;;;;;;;19.25;10.68;;;;;;;;;;4330149;33;20602;-81
2021/09/21 05:57:15;;;;;;;17.83;10.38;;;;;;;;;;4330260;33;20234;-80
2021/09/21 05:59:40;;;;;;;20.35;10.20;;;;;;;;;;4330590;33;20555;-80
2021/09/21 06:02:07;;;;;;;16.85;10.07;;;;;;;;;;4316951;33;20483;-81
2021/09/21 06:04:33;;;;;;;13.70;9.55;;;;;;;;;;4329959;33;20538;-76
2021/09/21 06:07:00;;;;;;;18.55;10.07;;;;;;;;;;4330393;33;20158;-81
2021/09/21 06:09:25;;;;;;;15.45;9.73;;;;;;;;;;4332633;33;20131;-80
2021/09/21 06:11:53;;;;;;;15.40;9.75;;;;;;;;;;4332907;33;20529;-80
2021/09/21 06:14:19;;;;;;;16.10;10.55;;;;;;;;;;4319406;33;20128;-78
2021/09/21 06:16:44;;;;;;;16.42;9.90;;;;;;;;;;4332154;33;20147;-78
2021/09/21 06:19:09;;;;;;;16.83;10.75;;;;;;;;;;4332937;33;20229;-77
2021/09/21 06:21:34;;;;;;;17.60;10.15;;;;;;;;;;4332664;33;20199;-79
2021/09/21 06:24:00;;;;;;;17.58;10.60;;;;;;;;;;4331983;33;20222;-76
2021/09/21 06:26:25;;;;;;;19.02;9.20;;;;;;;;;;4331906;33;20158;-79
2021/09/21 06:28:51;;;;;;;18.40;10.40;;;;;;;;;;4332509;33;20175;-80
2021/09/21 06:31:16;;;;;;;17.62;9.65;;;;;;;;;;4332864;33;20131;-77
2021/09/21 06:33:41;;;;;;;14.87;9.00;;;;;;;;;;4332688;33;20163;-81
2021/09/21 06:36:07;;;;;;;17.67;10.20;;;;;;;;;;4332251;33;20148;-81
2021/09/21 06:38:37;;;;;;;18.35;9.25;;;;;;;;;;4332271;33;20182;-80
2021/09/21 06:41:03;;;;;;;15.18;8.40;;;;;;;;;;4332526;33;20146;-80
2021/09/21 06:43:28;;;;;;;19.73;9.80;;;;;;;;;;4331922;33;20143;-80
2021/09/21 06:45:55;;;;;;;34.45;10.70;;;;;;;;;;4318652;33;20156;-80
2021/09/21 06:48:21;;;;;;;13.18;8.48;;;;;;;;;;4331859;33;20238;-81
2021/09/21 06:50:46;;;;;;;17.17;9.15;;;;;;;;;;4332092;33;20128;-79
2021/09/21 06:53:11;;;;;;;16.45;8.93;;;;;;;;;;4331921;33;20186;-81
2021/09/21 06:55:37;;;;;;;9.25;6.30;;;;;;;;;;4332155;33;20158;-80
2021/09/21 06:58:05;;;;;;;10.65;6.50;;;;;;;;;;4332003;33;20152;-80
2021/09/21 07:00:34;;;;;;;10.93;5.22;;;;;;;;;;4331620;33;20294;-80
2021/09/21 07:03:00;;;;;;;8.18;5.22;;;;;;;;;;4331900;33;20132;-80
2021/09/21 07:05:25;;;;;;;7.57;4.68;;;;;;;;;;4331616;33;20162;-80
2021/09/21 07:07:51;;;;;;;6.10;4.50;;;;;;;;;;4332409;33;20159;-80
2021/09/21 07:10:17;;;;;;;9.23;5.28;;;;;;;;;;4332022;33;20132;-79
2021/09/21 07:12:46;;;;;;;7.32;5.15;;;;;;;;;;4331570;33;20148;-79
2021/09/21 07:15:23;;;;;;;10.23;6.20;;;;;;;;;;4331943;33;20189;-81
2021/09/21 07:17:55;;;;;;;11.45;6.22;;;;;;;;;;4318376;33;20155;-79
2021/09/21 07:20:29;;;;;;;12.85;7.50;;;;;;;;;;4332311;33;20175;-79
2021/09/21 07:22:54;;;;;;;10.68;6.25;;;;;;;;;;4332191;33;20125;-80
2021/09/21 07:25:20;;;;;;;8.25;5.90;;;;;;;;;;4318298;33;20156;-80
2021/09/21 07:27:46;;;;;;;9.73;5.62;;;;;;;;;;4331857;33;20154;-80
2021/09/21 07:30:12;;;;;;;7.82;5.55;;;;;;;;;;4332353;33;20203;-81
2021/09/21 07:32:38;;;;;;;10.68;5.70;;;;;;;;;;4331993;33;20150;-80
2021/09/21 07:35:06;;;;;;;11.12;6.43;;;;;;;;;;4331672;33;20599;-78
2021/09/21 07:37:32;;;;;;;10.05;6.20;;;;;;;;;;4333102;33;20124;-80
2021/09/21 07:39:57;;;;;;;14.13;6.12;;;;;;;;;;4333604;33;20178;-80
2021/09/21 07:42:22;;;;;;;9.55;5.93;;;;;;;;;;4334662;33;20135;-81
2021/09/21 07:44:48;;;;;;;7.62;4.65;;;;;;;;;;4333464;33;20132;-78
2021/09/21 07:47:13;;;;;;;7.85;4.68;;;;;;;;;;4333628;33;20151;-80
2021/09/21 07:49:39;;;;;;;12.52;5.45;;;;;;;;;;4320024;33;20562;-80
2021/09/21 07:52:04;;;;;;;10.00;5.00;;;;;;;;;;4333723;33;20199;-81
2021/09/21 07:54:29;;;;;;;9.70;5.25;;;;;;;;;;4333617;33;20411;-79
2021/09/21 07:56:55;;;;;;;8.00;5.10;;;;;;;;;;4333457;33;20160;-80
2021/09/21 07:59:20;;;;;;;12.00;5.43;;;;;;;;;;4319623;33;20512;-76
2021/09/21 08:01:52;;;;;;;8.35;5.72;;;;;;;;;;4332596;33;20585;-79
2021/09/21 08:04:17;;;;;;;7.82;5.20;;;;;;;;;;4331721;33;20557;-81
2021/09/21 08:06:42;;;;;;;19.80;6.25;;;;;;;;;;4331566;33;20144;-81
2021/09/21 08:09:07;;;;;;;8.85;4.93;;;;;;;;;;4332037;33;20530;-80
2021/09/21 08:11:33;;;;;;;7.60;5.10;;;;;;;;;;4331376;33;20665;-80
2021/09/21 08:14:03;;;;;;;11.43;5.60;;;;;;;;;;4331911;33;20140;-79
2021/09/21 08:16:28;;;;;;;8.52;4.57;;;;;;;;;;4317888;33;20276;-81
2021/09/21 08:18:54;;;;;;;8.65;5.00;;;;;;;;;;4331598;33;20140;-78
2021/09/21 08:21:22;;;;;;;8.68;4.30;;;;;;;;;;4331352;33;20155;-80
2021/09/21 08:23:47;;;;;;;9.20;4.90;;;;;;;;;;4317370;33;20159;-81
2021/09/21 08:26:12;;;;;;;7.25;4.57;;;;;;;;;;4331220;33;20158;-79
2021/09/21 08:28:38;;;;;;;8.32;4.80;;;;;;;;;;4331078;33;20207;-80
2021/09/21 08:31:03;;;;;;;7.93;4.53;;;;;;;;;;4317339;33;20186;-80
2021/09/21 08:33:28;;;;;;;11.25;4.22;;;;;;;;;;4330678;33;20446;-80
2021/09/21 08:36:05;;;;;;;5.18;3.53;;;;;;;;;;4317395;33;20581;-80
2021/09/21 08:38:31;;;;;;;8.13;3.53;;;;;;;;;;4331651;33;20151;-80
2021/09/21 08:40:56;;;;;;;6.28;3.47;;;;;;;;;;4331089;33;20162;-81
2021/09/21 08:43:21;;;;;;;5.32;3.87;;;;;;;;;;4330673;33;20191;-81
2021/09/21 08:45:46;;;;;;;7.30;4.43;;;;;;;;;;4330814;33;20252;-79
2021/09/21 08:48:12;;;;;;;9.43;4.62;;;;;;;;;;4330678;33;20139;-81
2021/09/21 08:50:37;;;;;;;5.30;3.75;;;;;;;;;;4330719;33;20132;-80
2021/09/21 08:53:03;;;;;;;9.40;3.72;;;;;;;;;;4330901;33;20588;-79
2021/09/21 08:55:30;;;;;;;6.30;4.30;;;;;;;;;;4330447;33;20139;-80
2021/09/21 08:57:56;;;;;;;5.87;3.42;;;;;;;;;;4330675;33;20152;-80
2021/09/21 09:00:28;;;;;;;9.32;4.75;;;;;;;;;;4330367;33;20166;-81
2021/09/21 09:03:08;;;;;;;6.03;3.20;;;;;;;;;;4330251;33;20136;-78
2021/09/21 09:05:40;;;;;;;5.93;3.12;;;;;;;;;;4330801;33;20170;-80
2021/09/21 09:08:05;;;;;;;4.15;3.00;;;;;;;;;;4330305;33;20151;-80
2021/09/21 09:10:31;;;;;;;3.90;2.92;;;;;;;;;;4316590;33;20179;-79
2021/09/21 09:12:56;;;;;;;7.47;3.00;;;;;;;;;;4330616;33;20124;-81
2021/09/21 09:15:22;;;;;;;4.18;3.05;;;;;;;;;;4330569;33;20170;-80
2021/09/21 09:17:58;;;;;;;6.75;3.53;;;;;;;;;;4330464;33;20182;-78
2021/09/21 09:20:37;;;;;;;5.72;3.25;;;;;;;;;;4330300;33;20139;-81
2021/09/21 09:23:06;;;;;;;5.22;3.10;;;;;;;;;;4317462;33;20164;-76
2021/09/21 09:25:31;;;;;;;4.90;3.42;;;;;;;;;;4331520;33;20513;-80
2021/09/21 09:27:57;;;;;;;6.25;3.22;;;;;;;;;;4330812;33;20175;-80
2021/09/21 09:30:23;;;;;;;4.07;3.30;;;;;;;;;;4331021;33;20128;-80
2021/09/21 09:32:50;;;;;;;6.80;3.70;;;;;;;;;;4330340;33;20223;-81
2021/09/21 09:35:43;;;;;;;4.45;3.28;;;;;;;;;;4316594;33;20159;-81
2021/09/21 09:38:14;;;;;;;6.45;4.12;;;;;;;;;;4330227;33;20132;-80
2021/09/21 09:40:45;;;;;;;6.35;3.95;;;;;;;;;;4330374;33;20140;-80
2021/09/21 09:43:11;;;;;;;4.70;3.78;;;;;;;;;;4332862;33;20163;-80
2021/09/21 09:45:41;;;;;;;5.35;4.00;;;;;;;;;;4320284;33;20153;-82
2021/09/21 09:48:06;;;;;;;3.67;3.10;;;;;;;;;;4333503;33;20136;-74
2021/09/21 09:50:33;;;;;;;3.62;3.10;;;;;;;;;;4333015;33;20135;-82
2021/09/21 09:53:01;;;;;;;4.60;3.17;;;;;;;;;;4319431;33;20696;-80
2021/09/21 09:55:27;;;;;;;4.37;3.30;;;;;;;;;;4319705;33;20491;-79
2021/09/21 09:57:52;;;;;;;6.30;3.30;;;;;;;;;;4319286;33;20190;-81
2021/09/21 10:00:17;;;;;;;5.00;3.12;;;;;;;;;;4334172;33;20462;-80
2021/09/21 10:02:43;;;;;;;4.45;3.42;;;;;;;;;;4333335;33;20132;-81
2021/09/21 10:05:08;;;;;;;6.28;3.30;;;;;;;;;;4332959;33;20124;-80
2021/09/21 10:07:34;;;;;;;5.22;3.40;;;;;;;;;;4306897;33;20164;-80
2021/09/21 10:09:59;;;;;;;3.75;3.00;;;;;;;;;;4332208;33;20185;-76
2021/09/21 10:12:24;;;;;;;5.37;3.62;;;;;;;;;;4332504;33;20131;-80
2021/09/21 10:14:52;;;;;;;9.70;4.62;;;;;;;;;;4332193;33;20228;-80
2021/09/21 10:17:22;;;;;;;5.62;3.80;;;;;;;;;;4319483;33;20211;-81
2021/09/21 10:19:52;;;;;;;5.22;3.62;;;;;;;;;;4333015;33;20159;-81
2021/09/21 10:22:24;;;;;;;3.65;2.85;;;;;;;;;;4332748;33;20125;-78
2021/09/21 10:24:50;;;;;;;6.90;3.12;;;;;;;;;;4333179;33;20191;-81
2021/09/21 10:27:19;;;;;;;7.72;3.00;;;;;;;;;;4331933;33;20275;-80
2021/09/21 10:29:44;;;;;;;4.03;2.60;;;;;;;;;;4332112;33;20124;-80
2021/09/21 10:32:10;;;;;;;4.07;2.85;;;;;;;;;;4332762;33;20274;-79
2021/09/21 10:34:53;;;;;;;4.82;2.58;;;;;;;;;;4332521;33;20124;-79
2021/09/21 10:37:19;;;;;;;4.82;2.80;;;;;;;;;;4319493;33;20227;-81
2021/09/21 10:39:44;;;;;;;4.80;2.80;;;;;;;;;;4318321;33;20167;-81
2021/09/21 10:42:20;;;;;;;3.08;1.80;;;;;;;;;;4332467;33;20179;-79
2021/09/21 10:44:52;;;;;;;3.92;2.20;;;;;;;;;;4332459;33;20132;-79
2021/09/21 10:47:24;;;;;;;3.80;2.10;;;;;;;;;;4331726;33;20155;-80
2021/09/21 10:49:49;;;;;;;2.45;2.00;;;;;;;;;;4331874;33;20147;-80
2021/09/21 10:52:17;;;;;;;2.45;2.03;;;;;;;;;;4332126;33;20592;-80
2021/09/21 10:54:53;;;;;;;2.30;1.62;;;;;;;;;;4331095;33;20159;-80
2021/09/21 10:57:35;;;;;;;3.60;1.80;;;;;;;;;;4332228;33;20155;-80
2021/09/21 11:00:08;;;;;;;2.22;1.73;;;;;;;;;;4332208;33;20171;-77
2021/09/21 11:02:36;;;;;;;4.18;1.90;;;;;;;;;;4318252;33;20555;-80
2021/09/21 11:05:02;;;;;;;2.90;1.42;;;;;;;;;;4318530;33;20560;-80
2021/09/21 11:07:27;;;;;;;5.68;1.80;;;;;;;;;;4318526;33;20164;-79
2021/09/21 11:09:54;;;;;;;2.42;1.52;;;;;;;;;;4332208;33;20128;-81
2021/09/21 11:12:22;;;;;;;1.50;1.10;;;;;;;;;;4331640;33;20133;-80
2021/09/21 11:14:47;;;;;;;2.30;1.40;;;;;;;;;;4318005;33;20198;-78
2021/09/21 11:17:13;;;;;;;2.28;1.37;;;;;;;;;;4331535;33;20490;-82
2021/09/21 11:19:38;;;;;;;3.35;1.58;;;;;;;;;;4331987;33;20136;-82
2021/09/21 11:22:05;;;;;;;2.00;1.50;;;;;;;;;;4331587;33;20152;-80
2021/09/21 11:24:30;;;;;;;3.78;1.90;;;;;;;;;;4318314;33;20186;-80
2021/09/21 11:27:02;;;;;;;2.85;2.00;;;;;;;;;;4331693;33;20124;-80
2021/09/21 11:29:27;;;;;;;2.62;1.90;;;;;;;;;;4318095;33;20160;-81
2021/09/21 11:31:53;;;;;;;4.47;2.08;;;;;;;;;;4317827;33;20656;-80
2021/09/21 11:34:20;;;;;;;4.12;2.15;;;;;;;;;;4331422;33;20199;-80
2021/09/21 11:36:53;;;;;;;4.03;2.30;;;;;;;;;;4331151;33;20199;-82
2021/09/21 11:39:18;;;;;;;3.40;1.90;;;;;;;;;;4317872;33;20483;-81
2021/09/21 11:41:50;;;;;;;2.85;1.70;;;;;;;;;;4332013;33;20154;-80
2021/09/21 11:44:15;;;;;;;1.70;1.50;;;;;;;;;;4331724;33;20542;-80
2021/09/21 11:46:40;;;;;;;2.80;1.80;;;;;;;;;;4331823;33;20156;-82
2021/09/21 11:49:06;;;;;;;5.30;2.10;;;;;;;;;;4331140;33;20155;-81
2021/09/21 11:51:34;;;;;;;3.15;1.60;;;;;;;;;;4317919;33;20178;-79
2021/09/21 11:54:00;;;;;;;2.15;1.60;;;;;;;;;;4331315;33;20154;-79
2021/09/21 11:56:25;;;;;;;1.75;1.58;;;;;;;;;;4330688;33;20156;-80
2021/09/21 11:58:59;;;;;;;14.40;2.10;;;;;;;;;;4330740;33;20160;-80
2021/09/21 12:01:25;;;;;;;2.95;1.58;;;;;;;;;;4332048;33;20138;-81
2021/09/21 12:03:53;;;;;;;4.25;1.85;;;;;;;;;;4330814;33;20641;-78
2021/09/21 12:06:39;;;;;;;4.05;1.67;;;;;;;;;;4330118;33;20128;-81
2021/09/21 12:09:05;;;;;;;3.22;1.60;;;;;;;;;;4330485;33;20171;-81
2021/09/21 12:11:33;;;;;;;3.30;1.58;;;;;;;;;;4317490;33;20486;-77
2021/09/21 12:13:58;;;;;;;3.55;1.75;;;;;;;;;;4330452;33;20203;-80
2021/09/21 12:16:26;;;;;;;9.40;2.40;;;;;;;;;;4330514;33;20151;-80
2021/09/21 12:18:52;;;;;;;8.20;2.10;;;;;;;;;;4330108;33;20553;-80
2021/09/21 12:21:20;;;;;;;4.82;2.08;;;;;;;;;;4316923;33;20155;-81
2021/09/21 12:23:55;;;;;;;1.92;1.50;;;;;;;;;;4317622;33;20224;-80
2021/09/21 12:26:21;;;;;;;48.67;4.53;;;;;;;;;;4330407;33;20124;-81
2021/09/21 12:28:52;;;;;;;6.37;2.00;;;;;;;;;;4331237;33;20125;-82
2021/09/21 12:31:22;;;;;;;4.25;1.85;;;;;;;;;;4317412;33;20514;-80
2021/09/21 12:33:48;;;;;;;2.33;1.58;;;;;;;;;;4330669;33;20231;-79
2021/09/21 12:36:20;;;;;;;4.30;1.95;;;;;;;;;;4330442;33;20566;-80
2021/09/21 12:38:59;;;;;;;5.10;1.50;;;;;;;;;;4330302;33;20514;-78
2021/09/21 12:41:24;;;;;;;2.53;1.70;;;;;;;;;;4330339;33;20571;-81
2021/09/21 12:43:53;;;;;;;5.80;1.77;;;;;;;;;;4316902;33;20193;-77
2021/09/21 12:46:18;;;;;;;3.15;1.50;;;;;;;;;;4322048;33;20197;-81
2021/09/21 12:48:43;;;;;;;3.90;1.70;;;;;;;;;;4345815;33;20445;-81
2021/09/21 12:51:09;;;;;;;3.10;1.80;;;;;;;;;;4344931;33;20154;-80
2021/09/21 12:53:35;;;;;;;5.53;2.55;;;;;;;;;;4345301;33;20132;-82
2021/09/21 12:56:04;;;;;;;3.95;1.77;;;;;;;;;;4344873;33;20132;-81
2021/09/21 12:58:38;;;;;;;4.82;2.28;;;;;;;;;;4345373;33;20206;-82
2021/09/21 13:01:04;;;;;;;3.28;1.73;;;;;;;;;;4331783;33;20178;-80
2021/09/21 13:03:30;;;;;;;4.35;2.08;;;;;;;;;;4345351;33;20644;-81
2021/09/21 13:05:55;;;;;;;5.22;2.05;;;;;;;;;;4345377;33;20203;-80
2021/09/21 13:08:20;;;;;;;4.18;1.50;;;;;;;;;;4344589;33;20214;-80
2021/09/21 13:10:46;;;;;;;4.53;2.53;;;;;;;;;;4345266;33;20159;-80
2021/09/21 13:13:12;;;;;;;4.03;3.12;;;;;;;;;;4344938;33;20163;-78
2021/09/21 13:15:38;;;;;;;6.68;2.87;;;;;;;;;;4344966;33;20132;-80
2021/09/21 13:18:03;;;;;;;3.87;3.00;;;;;;;;;;4348154;33;20163;-81
2021/09/21 13:20:30;;;;;;;6.47;4.18;;;;;;;;;;4334571;33;20167;-80
2021/09/21 13:22:55;;;;;;;5.87;2.62;;;;;;;;;;4348017;33;20132;-80
2021/09/21 13:25:21;;;;;;;4.10;2.20;;;;;;;;;;4347964;33;20243;-79
2021/09/21 13:27:46;;;;;;;5.57;2.75;;;;;;;;;;4347822;33;20131;-80
2021/09/21 13:30:13;;;;;;;5.25;2.90;;;;;;;;;;4348056;33;20151;-80
2021/09/21 13:32:41;;;;;;;4.95;2.85;;;;;;;;;;4348223;33;20131;-81
2021/09/21 13:35:10;;;;;;;5.43;3.40;;;;;;;;;;4348270;33;20140;-80
2021/09/21 13:37:38;;;;;;;4.80;2.87;;;;;;;;;;4334249;33;20465;-79
2021/09/21 13:40:03;;;;;;;3.28;2.50;;;;;;;;;;4333066;33;20496;-80
2021/09/21 13:42:32;;;;;;;5.30;2.53;;;;;;;;;;4332746;33;20155;-80
2021/09/21 13:44:57;;;;;;;4.82;2.62;;;;;;;;;;4345800;33;20208;-80
2021/09/21 13:47:22;;;;;;;5.65;2.50;;;;;;;;;;4334259;33;20160;-80
2021/09/21 13:49:57;;;;;;;;;;;;;;;;;;;;;
2021/09/21 13:52:23;;;;;;;3.20;2.45;;;;;;;;;;4347855;33;20135;-81
2021/09/21 13:54:48;;;;;;;4.35;2.75;;;;;;;;;;4347371;33;20158;-81
2021/09/21 13:57:13;;;;;;;4.53;3.17;;;;;;;;;;4347033;33;20151;-81
2021/09/21 13:59:39;;;;;;;4.18;2.62;;;;;;;;;;4334044;33;20175;-79
2021/09/21 14:02:06;;;;;;;3.78;2.53;;;;;;;;;;4348097;33;20174;-80
2021/09/21 14:04:31;;;;;;;7.12;2.70;;;;;;;;;;4347653;33;20197;-80
2021/09/21 14:06:58;;;;;;;4.12;2.72;;;;;;;;;;4347015;33;20147;-79
2021/09/21 14:09:24;;;;;;;3.80;2.58;;;;;;;;;;4347222;33;20194;-80
2021/09/21 14:11:51;;;;;;;6.60;2.80;;;;;;;;;;4347627;33;20136;-80
2021/09/21 14:14:17;;;;;;;4.95;2.85;;;;;;;;;;4347839;33;20136;-80
2021/09/21 14:16:42;;;;;;;3.83;2.45;;;;;;;;;;4334224;33;20190;-80
2021/09/21 14:19:07;;;;;;;7.10;3.05;;;;;;;;;;4346819;33;20147;-80
2021/09/21 14:21:32;;;;;;;4.18;2.60;;;;;;;;;;4346852;33;20213;-78
2021/09/21 14:23:58;;;;;;;4.53;2.40;;;;;;;;;;4347867;33;20158;-81
2021/09/21 14:26:24;;;;;;;4.75;2.50;;;;;;;;;;4346567;33;20144;-81
2021/09/21 14:28:49;;;;;;;3.08;2.50;;;;;;;;;;4346727;33;20131;-80
2021/09/21 14:31:15;;;;;;;4.65;2.10;;;;;;;;;;4333389;33;20223;-80
2021/09/21 14:33:40;;;;;;;2.87;2.00;;;;;;;;;;4333569;33;20155;-81
2021/09/21 14:36:05;;;;;;;3.92;2.50;;;;;;;;;;4333602;33;20206;-80
2021/09/21 14:38:31;;;;;;;5.00;2.20;;;;;;;;;;4346662;33;20183;-79
2021/09/21 14:40:56;;;;;;;4.55;2.42;;;;;;;;;;4347271;33;20201;-81
2021/09/21 14:43:21;;;;;;;4.72;2.50;;;;;;;;;;4333267;33;20160;-81
2021/09/21 14:45:50;;;;;;;4.57;2.20;;;;;;;;;;4346944;33;20206;-80
2021/09/21 14:48:15;;;;;;;3.85;2.10;;;;;;;;;;4346923;33;20143;-81